Dan Viking — OVIL2 — position and weather

sailwx.info

Track history (hours):
 
Tides and Currents Weather Stations Pressure Air Temp Water Temp Dewpoint Dewpoint Depression Visibility Wind Speed Wind Dir Waves Ship Positions

Dan Viking

Last reported at 2014-Sep-01 18:18 UTC. Time now 2014-Sep-01 18:51 UTC.
Position N 54°56' E 013°20'.

Length 79 m; draft 2.5 m.

Type: Cargo ship. MMSI: 220439000.

Date/timePositionNaut miles runAvg speedWind from/ knotsBaromVisibWave heightAir tempDewpointWater temp
2014-Sep-01 18:18N 54°56' E 013°20'41 1.1
2014-Aug-31 05:12N 54°42' E 012°13'6 8.5
2014-Aug-31 04:32N 54°37' E 012°09'7 7.6
2014-Aug-31 03:33N 54°30' E 012°04'9 8.8
2014-Aug-31 02:33N 54°30' E 011°49'62 7.7
2014-Aug-30 18:32N 54°55' E 010°11'8 8.5
2014-Aug-30 17:34N 55°01' E 009°60'9 8.8
2014-Aug-30 16:33N 55°06' E 009°47'9 8.7
2014-Aug-30 15:33N 55°03' E 009°33'0 0.1
2014-Aug-30 07:16N 55°03' E 009°32'6 8.2
2014-Aug-30 06:34N 55°06' E 009°41'8 7.6
2014-Aug-30 05:31N 55°03' E 009°54'8 8.2
2014-Aug-30 04:33N 54°58' E 010°05'59 8.5
2014-Aug-29 21:33N 54°30' E 011°35'9 8.7
2014-Aug-29 20:33N 54°30' E 011°50'9 8.6
2014-Aug-29 19:33N 54°31' E 012°05'9 8.3
2014-Aug-29 18:32N 54°38' E 012°12'32 6.3
2014-Aug-29 13:26N 55°10' E 012°16'4 1.5
2014-Aug-29 10:29N 55°13' E 012°10'0 0.0
2014-Aug-29 07:20N 55°13' E 012°10'0 0.0
2014-Aug-29 06:26N 55°13' E 012°10'2 2.3
2014-Aug-29 05:33N 55°11' E 012°12'9 9.3
2014-Aug-29 04:32N 55°06' E 012°26'8 8.6
2014-Aug-29 03:33N 54°59' E 012°35'9 8.5
2014-Aug-29 02:33N 54°52' E 012°28'9 9.5
2014-Aug-29 01:33N 54°45' E 012°17'9 9.5
2014-Aug-29 00:33N 54°37' E 012°09'8 7.9
2014-Aug-28 23:33N 54°30' E 012°02'8 7.8
2014-Aug-28 22:33N 54°30' E 011°48'11 8.3
2014-Aug-28 21:12N 54°33' E 011°29'6 8.2
2014-Aug-28 20:31N 54°35' E 011°21'44 8.4
2014-Aug-28 15:17N 54°53' E 010°12'6 8.9
2014-Aug-28 14:33N 54°58' E 010°04'8 8.5
2014-Aug-28 13:34N 55°04' E 009°53'7 7.4
2014-Aug-28 12:34N 55°05' E 009°40'8 8.1
2014-Aug-28 11:33N 55°02' E 009°27'7 1.1
2014-Aug-28 05:33N 55°05' E 009°37'8 7.6
2014-Aug-28 04:33N 55°05' E 009°51'73 7.8
2014-Aug-27 19:15N 54°30' E 011°41'9 8.3
2014-Aug-27 18:11N 54°30' E 011°56'5 7.9
2014-Aug-27 17:34N 54°30' E 012°05'9 8.5
2014-Aug-27 16:33N 54°37' E 012°13'9 8.0
2014-Aug-27 15:25N 54°45' E 012°22'  
2014-Aug-25 06:34N 55°11' E 012°18'7 7.4
2014-Aug-25 05:33N 55°09' E 012°31'7 6.9
2014-Aug-25 04:33N 55°09' E 012°43'59 6.2
2014-Aug-24 19:06N 55°20' E 014°24'45 6.9
2014-Aug-24 12:29N 55°45' E 015°31'7 7.5
2014-Aug-24 11:33N 55°49' E 015°41'17 7.5
2014-Aug-24 09:14N 55°58' E 016°08'5 7.2
2014-Aug-24 08:33N 55°60' E 016°16'68 7.6
2014-Aug-23 23:33N 56°58' E 017°18'7 7.5
2014-Aug-23 22:33N 57°06' E 017°22'7 7.3
2014-Aug-23 21:33N 57°13' E 017°26'7 7.3
2014-Aug-23 20:33N 57°19' E 017°31'8 7.6
2014-Aug-23 19:31N 57°27' E 017°37'  
Track history (hours):
 
Tides and Currents Weather Stations Pressure Air Temp Water Temp Dewpoint Dewpoint Depression Visibility Wind Speed Wind Dir Waves Ship Positions

Dan Viking

Last reported at 2014-Sep-01 18:18 UTC. Time now 2014-Sep-01 18:51 UTC.
Position N 54°56' E 013°20'.

Length 79 m; draft 2.5 m.

Type: Cargo ship. MMSI: 220439000.

Date/timePositionNaut miles runAvg speedWind from/ knotsBaromVisibWave heightAir tempDewpointWater temp
2014-Sep-01 18:18N 54°56' E 013°20'41 1.1
2014-Aug-31 05:12N 54°42' E 012°13'6 8.5
2014-Aug-31 04:32N 54°37' E 012°09'7 7.6
2014-Aug-31 03:33N 54°30' E 012°04'9 8.8
2014-Aug-31 02:33N 54°30' E 011°49'62 7.7
2014-Aug-30 18:32N 54°55' E 010°11'8 8.5
2014-Aug-30 17:34N 55°01' E 009°60'9 8.8
2014-Aug-30 16:33N 55°06' E 009°47'9 8.7
2014-Aug-30 15:33N 55°03' E 009°33'0 0.1
2014-Aug-30 07:16N 55°03' E 009°32'6 8.2
2014-Aug-30 06:34N 55°06' E 009°41'8 7.6
2014-Aug-30 05:31N 55°03' E 009°54'8 8.2
2014-Aug-30 04:33N 54°58' E 010°05'59 8.5
2014-Aug-29 21:33N 54°30' E 011°35'9 8.7
2014-Aug-29 20:33N 54°30' E 011°50'9 8.6
2014-Aug-29 19:33N 54°31' E 012°05'9 8.3
2014-Aug-29 18:32N 54°38' E 012°12'32 6.3
2014-Aug-29 13:26N 55°10' E 012°16'4 1.5
2014-Aug-29 10:29N 55°13' E 012°10'0 0.0
2014-Aug-29 07:20N 55°13' E 012°10'0 0.0
2014-Aug-29 06:26N 55°13' E 012°10'2 2.3
2014-Aug-29 05:33N 55°11' E 012°12'9 9.3
2014-Aug-29 04:32N 55°06' E 012°26'8 8.6
2014-Aug-29 03:33N 54°59' E 012°35'9 8.5
2014-Aug-29 02:33N 54°52' E 012°28'9 9.5
2014-Aug-29 01:33N 54°45' E 012°17'9 9.5
2014-Aug-29 00:33N 54°37' E 012°09'8 7.9
2014-Aug-28 23:33N 54°30' E 012°02'8 7.8
2014-Aug-28 22:33N 54°30' E 011°48'11 8.3
2014-Aug-28 21:12N 54°33' E 011°29'6 8.2
2014-Aug-28 20:31N 54°35' E 011°21'44 8.4
2014-Aug-28 15:17N 54°53' E 010°12'6 8.9
2014-Aug-28 14:33N 54°58' E 010°04'8 8.5
2014-Aug-28 13:34N 55°04' E 009°53'7 7.4
2014-Aug-28 12:34N 55°05' E 009°40'8 8.1
2014-Aug-28 11:33N 55°02' E 009°27'7 1.1
2014-Aug-28 05:33N 55°05' E 009°37'8 7.6
2014-Aug-28 04:33N 55°05' E 009°51'73 7.8
2014-Aug-27 19:15N 54°30' E 011°41'9 8.3
2014-Aug-27 18:11N 54°30' E 011°56'5 7.9
2014-Aug-27 17:34N 54°30' E 012°05'9 8.5
2014-Aug-27 16:33N 54°37' E 012°13'9 8.0
2014-Aug-27 15:25N 54°45' E 012°22'  
2014-Aug-25 06:34N 55°11' E 012°18'7 7.4
2014-Aug-25 05:33N 55°09' E 012°31'7 6.9
2014-Aug-25 04:33N 55°09' E 012°43'59 6.2
2014-Aug-24 19:06N 55°20' E 014°24'45 6.9
2014-Aug-24 12:29N 55°45' E 015°31'7 7.5
2014-Aug-24 11:33N 55°49' E 015°41'17 7.5
2014-Aug-24 09:14N 55°58' E 016°08'5 7.2
2014-Aug-24 08:33N 55°60' E 016°16'68 7.6
2014-Aug-23 23:33N 56°58' E 017°18'7 7.5
2014-Aug-23 22:33N 57°06' E 017°22'7 7.3
2014-Aug-23 21:33N 57°13' E 017°26'7 7.3
2014-Aug-23 20:33N 57°19' E 017°31'8 7.6
2014-Aug-23 19:31N 57°27' E 017°37'  

Dump ship's entire track history